Time;durP1;ratioP1;P1;durP2;ratioP2;P2;SDS_P1;SDS_P2;PMS_P1;PMS_P2;Temp;Humidity;BMP_temperature;BMP_pressure;BME280_temperature;BME280_humidity;BME280_pressure;Samples;Min_cycle;Max_cycle;Signal;HPM_P1;HPM_P2
2021/05/26 00:00:30;;;;;;;1.83;0.93;;;;;;;7.45;100.00;96015.22;1030706;28;20109;-69
2021/05/26 00:01:00;;;;;;;3.13;1.13;;;;;;;7.49;100.00;96021.56;1032524;28;20050;-70
2021/05/26 00:01:31;;;;;;;1.60;0.80;;;;;;;7.48;100.00;96020.75;1035060;28;20029;-70
2021/05/26 00:02:01;;;;;;;5.68;1.20;;;;;;;7.50;100.00;96023.13;1035280;28;20113;-69
2021/05/26 00:02:32;;;;;;;5.10;1.13;;;;;;;7.40;100.00;96002.06;1037692;28;20033;-71
2021/05/26 00:03:02;;;;;;;2.42;1.00;;;;;;;7.49;100.00;96021.56;1034665;28;20105;-70
2021/05/26 00:03:34;;;;;;;3.25;1.02;;;;;;;7.49;100.00;96011.09;1034779;28;20022;-71
2021/05/26 00:04:05;;;;;;;2.67;1.45;;;;;;;7.48;100.00;96019.97;1034703;28;20125;-70
2021/05/26 00:04:35;;;;;;;3.38;1.30;;;;;;;7.49;100.00;96011.09;1034181;28;20268;-70
2021/05/26 00:05:06;;;;;;;2.00;0.95;;;;;;;7.49;100.00;96016.31;1026545;28;20027;-70
2021/05/26 00:05:40;;;;;;;1.73;0.90;;;;;;;7.49;100.00;96016.31;1038744;28;20014;-70
2021/05/26 00:06:13;;;;;;;3.60;1.20;;;;;;;7.47;100.00;96013.16;1032494;28;20316;-70
2021/05/26 00:06:44;;;;;;;4.20;1.42;;;;;;;7.45;100.00;96010.00;1030297;28;20288;-70
2021/05/26 00:07:14;;;;;;;4.15;1.10;;;;;;;7.37;100.00;96002.53;1035075;28;20662;-69
2021/05/26 00:07:45;;;;;;;1.63;0.80;;;;;;;7.48;100.00;96009.53;1036289;28;20025;-70
2021/05/26 00:08:30;;;;;;;2.45;0.80;;;;;;;7.47;100.00;96013.16;1034881;28;20026;-70
2021/05/26 00:09:00;;;;;;;2.60;1.13;;;;;;;7.47;100.00;96013.94;1038616;28;20059;-70
2021/05/26 00:09:31;;;;;;;1.92;0.93;;;;;;;7.40;100.00;96002.84;1035073;28;20268;-70
2021/05/26 00:10:05;;;;;;;1.42;0.90;;;;;;;7.39;100.00;96001.28;1042884;28;20017;-70
2021/05/26 00:10:35;;;;;;;1.85;0.80;;;;;;;7.46;100.00;96003.75;1039728;28;20063;-70
2021/05/26 00:11:09;;;;;;;2.88;0.95;;;;;;;7.41;100.00;96003.66;1038352;28;20284;-69
2021/05/26 00:11:39;;;;;;;4.22;0.90;;;;;;;7.35;100.00;95988.94;1033577;28;20017;-70
2021/05/26 00:12:12;;;;;;;4.25;1.20;;;;;;;7.45;100.00;95996.94;1034470;28;20624;-70
2021/05/26 00:12:42;;;;;;;1.75;0.82;;;;;;;7.45;100.00;95996.94;1035139;28;20040;-70
2021/05/26 00:13:13;;;;;;;3.08;1.33;;;;;;;7.43;100.00;95996.38;1039147;28;20412;-69
2021/05/26 00:13:44;;;;;;;3.25;1.30;;;;;;;7.41;100.00;95990.59;1042806;28;20386;-69
2021/05/26 00:14:14;;;;;;;3.97;0.93;;;;;;;7.44;100.00;96000.56;1043100;28;20380;-70
2021/05/26 00:14:45;;;;;;;1.55;0.80;;;;;;;7.44;100.00;95995.34;1046156;28;20258;-70
2021/05/26 00:15:15;;;;;;;2.10;0.85;;;;;;;7.38;100.00;95988.44;1040582;28;20069;-71
2021/05/26 00:15:46;;;;;;;5.20;1.38;;;;;;;7.43;100.00;95991.16;1037891;28;20021;-70
2021/05/26 00:16:17;;;;;;;4.05;1.10;;;;;;;7.41;100.00;95990.59;1030421;28;20025;-70
2021/05/26 00:16:47;;;;;;;1.70;1.02;;;;;;;7.33;100.00;95982.13;1030308;28;20022;-71
2021/05/26 00:17:18;;;;;;;3.20;1.00;;;;;;;7.43;100.00;95993.78;1022597;29;20024;-69
2021/05/26 00:17:48;;;;;;;2.42;1.27;;;;;;;7.42;100.00;95992.97;1026385;28;20022;-70
2021/05/26 00:18:19;;;;;;;4.47;1.35;;;;;;;7.38;100.00;95988.44;1026621;28;20042;-70
2021/05/26 00:18:49;;;;;;;2.22;1.00;;;;;;;7.42;100.00;95986.97;1033740;28;20018;-69
2021/05/26 00:19:20;;;;;;;4.10;0.75;;;;;;;7.32;100.00;95980.53;1034700;28;20507;-70
2021/05/26 00:19:50;;;;;;;2.72;0.98;;;;;;;7.40;100.00;95991.63;1034023;28;20026;-70
2021/05/26 00:20:21;;;;;;;4.07;1.17;;;;;;;7.40;100.00;95992.41;1038684;28;20392;-70
2021/05/26 00:20:52;;;;;;;2.83;1.00;;;;;;;7.39;100.00;95984.84;1038631;28;20033;-70
2021/05/26 00:21:24;;;;;;;2.15;1.10;;;;;;;7.35;100.00;95979.28;1038513;28;20482;-69
2021/05/26 00:21:55;;;;;;;3.55;1.23;;;;;;;7.40;100.00;95996.84;1034513;28;21122;-70
2021/05/26 00:22:26;;;;;;;3.78;1.17;;;;;;;7.37;100.00;95981.66;1030923;28;20261;-70
2021/05/26 00:22:59;;;;;;;2.72;0.80;;;;;;;7.37;100.00;95989.47;1032111;28;20435;-71
2021/05/26 00:23:29;;;;;;;4.63;1.20;;;;;;;7.40;100.00;95986.41;1027136;28;20351;-69
2021/05/26 00:24:00;;;;;;;1.40;0.95;;;;;;;7.35;100.00;95978.50;1026230;28;20823;-70
2021/05/26 00:24:33;;;;;;;2.33;1.10;;;;;;;7.41;100.00;95987.97;1034718;28;20029;-70
2021/05/26 00:25:04;;;;;;;1.05;0.90;;;;;;;7.37;100.00;95982.44;1042821;28;20294;-69
2021/05/26 00:25:35;;;;;;;2.28;1.00;;;;;;;7.38;100.00;95984.03;1034566;28;20036;-70
2021/05/26 00:26:05;;;;;;;3.58;1.10;;;;;;;7.42;100.00;95984.38;1033636;28;20303;-69
2021/05/26 00:26:36;;;;;;;4.38;1.15;;;;;;;7.38;100.00;95978.00;1026950;28;20022;-69
2021/05/26 00:27:06;;;;;;;3.10;1.08;;;;;;;7.43;100.00;95985.94;1030160;28;20034;-70
2021/05/26 00:27:37;;;;;;;3.38;1.00;;;;;;;7.44;100.00;95982.28;1030215;28;20026;-71
2021/05/26 00:28:08;;;;;;;2.22;1.10;;;;;;;7.36;100.00;95975.66;1027262;28;20023;-72
2021/05/26 00:28:41;;;;;;;1.50;0.82;;;;;;;7.41;100.00;95974.94;1034522;28;20285;-70
2021/05/26 00:29:12;;;;;;;6.10;1.48;;;;;;;7.40;100.00;95979.34;1026380;28;20027;-70
2021/05/26 00:29:43;;;;;;;4.25;1.10;;;;;;;7.40;100.00;95979.34;1028925;28;20899;-69
2021/05/26 00:30:14;;;;;;;4.28;1.30;;;;;;;7.39;100.00;95980.41;1029680;28;20029;-70
2021/05/26 00:30:48;;;;;;;2.38;1.10;;;;;;;7.20;100.00;95950.31;1031738;28;20021;-70
2021/05/26 00:31:21;;;;;;;1.13;0.77;;;;;;;7.37;100.00;95977.22;1038690;28;20267;-70
2021/05/26 00:31:52;;;;;;;5.05;1.70;;;;;;;7.37;100.00;95976.44;1036479;28;20281;-70
2021/05/26 00:32:22;;;;;;;1.15;0.95;;;;;;;7.35;100.00;95974.06;1030728;28;20285;-70
2021/05/26 00:32:54;;;;;;;2.28;0.85;;;;;;;7.24;100.00;95956.63;1029956;28;20030;-69
2021/05/26 00:33:24;;;;;;;5.82;0.88;;;;;;;7.38;100.00;95978.00;1034436;28;20425;-70
2021/05/26 00:33:55;;;;;;;0.80;0.70;;;;;;;7.38;100.00;95978.81;1038801;28;20280;-69
2021/05/26 00:34:25;;;;;;;3.00;1.17;;;;;;;7.38;100.00;95975.41;1033948;28;20471;-70
2021/05/26 00:34:56;;;;;;;2.50;1.20;;;;;;;7.38;100.00;95978.00;1034224;28;20124;-67
2021/05/26 00:35:26;;;;;;;3.83;1.00;;;;;;;7.37;100.00;95976.44;1030541;28;20054;-69
2021/05/26 00:35:57;;;;;;;3.63;0.95;;;;;;;7.38;100.00;95972.78;1031760;28;20054;-70
2021/05/26 00:36:27;;;;;;;3.20;1.00;;;;;;;7.38;100.00;95975.41;1038048;28;20511;-70
2021/05/26 00:36:57;;;;;;;1.27;0.85;;;;;;;7.38;100.00;95975.41;1026420;28;20050;-70
2021/05/26 00:37:28;;;;;;;1.67;0.93;;;;;;;7.32;100.00;95974.53;1034116;28;20461;-70
2021/05/26 00:37:58;;;;;;;4.78;1.00;;;;;;;7.28;100.00;95963.78;1030494;28;20022;-70
2021/05/26 00:38:29;;;;;;;3.17;1.10;;;;;;;7.33;100.00;95970.91;1031815;28;20022;-70
2021/05/26 00:38:59;;;;;;;4.65;1.27;;;;;;;7.33;100.00;95973.50;1034382;28;20133;-69
2021/05/26 00:39:30;;;;;;;2.15;0.88;;;;;;;7.33;100.00;95982.13;1028791;28;20037;-69
2021/05/26 00:40:00;;;;;;;2.28;1.15;;;;;;;7.27;100.00;95964.78;1029875;28;20041;-70
2021/05/26 00:40:31;;;;;;;3.63;1.20;;;;;;;7.34;100.00;95972.47;1025334;28;20513;-70
2021/05/26 00:41:01;;;;;;;2.65;1.05;;;;;;;7.30;100.00;95971.38;1030430;28;20018;-70
2021/05/26 00:41:32;;;;;;;1.55;0.82;;;;;;;7.34;100.00;95977.69;1030401;28;20030;-70
2021/05/26 00:42:03;;;;;;;1.67;0.93;;;;;;;7.35;100.00;95975.91;1034876;28;20058;-71
2021/05/26 00:42:33;;;;;;;3.47;1.38;;;;;;;7.37;100.00;95976.44;1022339;28;20034;-69
2021/05/26 00:43:04;;;;;;;1.38;0.95;;;;;;;7.35;100.00;95968.06;1022745;29;20450;-70
2021/05/26 00:43:34;;;;;;;2.58;1.13;;;;;;;7.36;100.00;95969.63;1033912;28;20065;-69
2021/05/26 00:44:08;;;;;;;2.53;1.10;;;;;;;7.32;100.00;95971.94;1026638;28;20545;-70
2021/05/26 00:44:38;;;;;;;6.25;1.33;;;;;;;7.36;100.00;95964.41;1030457;28;20023;-70
2021/05/26 00:45:09;;;;;;;3.45;1.10;;;;;;;7.36;100.00;95969.63;1026787;28;20310;-69
2021/05/26 00:45:39;;;;;;;2.38;1.00;;;;;;;7.29;100.00;95964.56;1030311;28;20023;-69
2021/05/26 00:46:10;;;;;;;4.45;1.15;;;;;;;7.36;100.00;95974.84;1026088;28;20031;-71
2021/05/26 00:46:45;;;;;;;3.03;1.02;;;;;;;7.28;100.00;95963.78;1034516;28;20073;-70
2021/05/26 00:47:34;;;;;;;1.90;0.98;;;;;;;7.37;100.00;95969.38;1034395;28;20025;-70
2021/05/26 00:48:05;;;;;;;1.05;0.90;;;;;;;7.37;100.00;95971.22;1026457;28;20274;-70
2021/05/26 00:48:35;;;;;;;3.85;1.00;;;;;;;7.39;100.00;95974.38;1030637;28;20296;-70
2021/05/26 00:49:06;;;;;;;3.53;1.38;;;;;;;7.38;100.00;95970.19;1026619;28;20065;-69
2021/05/26 00:49:36;;;;;;;4.70;0.90;;;;;;;7.29;100.00;95956.75;1026248;28;20070;-69
2021/05/26 00:50:09;;;;;;;2.88;1.00;;;;;;;7.38;100.00;95972.78;1030780;28;20487;-70
2021/05/26 00:50:40;;;;;;;1.33;0.98;;;;;;;7.37;100.00;95963.38;1030726;28;20030;-69
2021/05/26 00:51:10;;;;;;;2.90;1.08;;;;;;;7.32;100.00;95953.66;1030415;28;20308;-70
2021/05/26 00:51:41;;;;;;;1.83;1.05;;;;;;;7.37;100.00;95964.16;1034468;28;20022;-70
2021/05/26 00:52:11;;;;;;;2.05;0.93;;;;;;;7.38;100.00;95957.13;1038821;28;20041;-70
2021/05/26 00:52:42;;;;;;;1.10;0.75;;;;;;;7.39;100.00;95958.72;1026619;28;20023;-70
2021/05/26 00:53:19;;;;;;;1.88;1.17;;;;;;;7.27;100.00;95941.28;1038417;28;20116;-70
2021/05/26 00:53:49;;;;;;;5.63;1.02;;;;;;;7.36;100.00;95959.19;1038773;28;20693;-70
2021/05/26 00:54:20;;;;;;;1.80;0.80;;;;;;;7.35;100.00;95958.41;1030991;28;20026;-70
2021/05/26 00:54:50;;;;;;;1.10;0.82;;;;;;;7.35;100.00;95955.81;1034309;28;20048;-70
2021/05/26 00:55:21;;;;;;;3.53;1.15;;;;;;;7.33;100.00;95961.25;1030548;28;20030;-70
2021/05/26 00:55:51;;;;;;;4.15;1.05;;;;;;;7.33;100.00;95961.25;1030205;28;20442;-70
2021/05/26 00:56:22;;;;;;;1.40;0.88;;;;;;;7.32;100.00;95962.28;1026309;28;20069;-69
2021/05/26 00:56:52;;;;;;;2.83;0.80;;;;;;;7.25;100.00;95945.97;1030629;28;20037;-70
2021/05/26 00:57:23;;;;;;;3.03;1.05;;;;;;;7.32;100.00;95956.28;1030730;28;20034;-69
2021/05/26 00:57:53;;;;;;;2.30;0.85;;;;;;;7.33;100.00;95956.03;1030687;28;20046;-70
2021/05/26 00:58:25;;;;;;;1.20;0.90;;;;;;;7.35;100.00;95958.41;1030581;28;20517;-70
2021/05/26 00:58:55;;;;;;;3.72;1.10;;;;;;;7.31;100.00;95960.69;1034802;28;20215;-70
2021/05/26 00:59:26;;;;;;;2.47;1.00;;;;;;;7.30;100.00;95950.47;1026426;28;20273;-70
2021/05/26 00:59:56;;;;;;;3.45;1.10;;;;;;;7.29;100.00;95944.47;1032394;28;20054;-70
2021/05/26 01:00:28;;;;;;;3.40;1.00;;;;;;;7.28;100.00;95950.72;1030678;28;20109;-70
2021/05/26 01:00:58;;;;;;;3.08;0.82;;;;;;;7.30;100.00;95958.31;1027575;28;20404;-70
2021/05/26 01:01:29;;;;;;;3.88;1.02;;;;;;;7.28;100.00;95955.94;1034103;28;20324;-69
2021/05/26 01:01:59;;;;;;;5.35;1.02;;;;;;;7.27;100.00;95946.53;1030662;28;20034;-69
2021/05/26 01:02:30;;;;;;;3.38;1.08;;;;;;;7.23;100.00;95955.84;1026817;28;20026;-70
2021/05/26 01:03:00;;;;;;;2.10;0.95;;;;;;;7.23;100.00;95953.25;1030696;28;20034;-70
2021/05/26 01:03:32;;;;;;;2.00;0.95;;;;;;;7.18;100.00;95945.34;1037290;28;20454;-70
2021/05/26 01:04:02;;;;;;;1.58;0.88;;;;;;;7.19;100.00;95946.91;1030917;28;20406;-70
2021/05/26 01:04:33;;;;;;;3.13;0.98;;;;;;;7.24;100.00;95947.03;1030667;28;20301;-70
2021/05/26 01:05:05;;;;;;;3.40;1.10;;;;;;;7.23;100.00;95949.84;1031989;28;20207;-70
2021/05/26 01:05:35;;;;;;;1.13;0.95;;;;;;;7.22;100.00;95943.84;1026771;28;20089;-70
2021/05/26 01:06:06;;;;;;;2.60;1.10;;;;;;;7.25;100.00;95947.81;1034014;28;20355;-70
2021/05/26 01:06:36;;;;;;;3.05;0.77;;;;;;;7.23;100.00;95942.81;1030653;28;20531;-70
2021/05/26 01:07:07;;;;;;;2.53;0.93;;;;;;;7.24;100.00;95947.03;1026619;28;20043;-69
2021/05/26 01:07:40;;;;;;;3.20;1.33;;;;;;;7.25;100.00;95945.19;1026466;28;20035;-70
2021/05/26 01:08:11;;;;;;;4.20;0.80;;;;;;;7.22;100.00;95946.44;1026714;28;20043;-71
2021/05/26 01:08:42;;;;;;;2.38;1.00;;;;;;;7.23;100.00;95940.19;1030233;28;20313;-71
2021/05/26 01:09:12;;;;;;;2.33;0.82;;;;;;;7.24;100.00;95946.19;1030613;28;20092;-70
2021/05/26 01:09:43;;;;;;;1.63;0.85;;;;;;;7.26;100.00;95944.16;1030565;28;20500;-70
2021/05/26 01:10:15;;;;;;;2.25;0.73;;;;;;;7.23;100.00;95942.81;1036744;28;20026;-70
2021/05/26 01:10:45;;;;;;;3.85;0.98;;;;;;;7.22;100.00;95943.84;1034750;28;20021;-69
2021/05/26 01:11:16;;;;;;;3.50;0.98;;;;;;;7.20;100.00;95937.25;1030682;28;20293;-70
2021/05/26 01:11:47;;;;;;;2.40;0.70;;;;;;;7.23;100.00;95934.19;1030098;28;20081;-70
2021/05/26 01:12:20;;;;;;;3.53;1.20;;;;;;;7.23;100.00;95942.00;1030918;28;20112;-70
2021/05/26 01:12:50;;;;;;;0.93;0.82;;;;;;;7.20;100.00;95940.66;1034706;28;20315;-70
2021/05/26 01:13:22;;;;;;;3.20;1.13;;;;;;;7.19;100.00;95943.53;1030573;28;20030;-68
2021/05/26 01:13:53;;;;;;;1.98;1.13;;;;;;;7.17;100.00;95942.94;1034274;28;20034;-70
2021/05/26 01:14:23;;;;;;;4.38;1.08;;;;;;;7.13;100.00;95937.41;1034688;28;21088;-70
2021/05/26 01:14:54;;;;;;;3.92;0.93;;;;;;;7.14;100.00;95936.38;1034772;28;20018;-70
2021/05/26 01:15:24;;;;;;;2.28;0.82;;;;;;;7.15;100.00;95935.38;1032814;28;20490;-69
2021/05/26 01:15:55;;;;;;;3.15;0.82;;;;;;;7.09;100.00;95928.47;1021831;29;20038;-69
2021/05/26 01:16:25;;;;;;;2.60;0.88;;;;;;;7.18;100.00;95940.13;1026387;28;20031;-69
2021/05/26 01:16:56;;;;;;;2.92;0.98;;;;;;;7.15;100.00;95935.38;1026925;28;20053;-71
2021/05/26 01:17:27;;;;;;;1.20;0.70;;;;;;;7.15;100.00;95937.19;1034714;28;20403;-70
2021/05/26 01:17:57;;;;;;;1.35;0.82;;;;;;;7.15;100.00;95932.75;1034285;28;20064;-70
2021/05/26 01:18:29;;;;;;;2.13;1.10;;;;;;;7.15;100.00;95937.97;1026602;28;20034;-70
2021/05/26 01:19:00;;;;;;;2.97;0.77;;;;;;;7.15;100.00;95937.97;1038491;28;20309;-70
2021/05/26 01:19:30;;;;;;;3.65;0.90;;;;;;;7.12;100.00;95938.44;1034150;28;20723;-71
2021/05/26 01:20:06;;;;;;;1.38;0.70;;;;;;;7.12;100.00;95941.06;1034728;28;20077;-70
2021/05/26 01:20:36;;;;;;;3.80;0.90;;;;;;;7.14;100.00;95935.59;1030591;28;20019;-69
2021/05/26 01:21:09;;;;;;;3.50;1.00;;;;;;;7.17;100.00;95935.91;1029917;28;20682;-70
2021/05/26 01:21:39;;;;;;;1.90;1.00;;;;;;;7.18;100.00;95936.72;1023044;29;20282;-70
2021/05/26 01:22:10;;;;;;;1.25;0.90;;;;;;;7.16;100.00;95939.56;1033257;28;20313;-70
2021/05/26 01:22:40;;;;;;;1.95;1.17;;;;;;;7.14;100.00;95935.59;1027628;28;20030;-71
2021/05/26 01:23:10;;;;;;;1.90;1.10;;;;;;;7.13;100.00;95934.81;1034831;28;20028;-70
2021/05/26 01:23:41;;;;;;;2.30;0.70;;;;;;;7.13;100.00;95929.59;1031824;28;20025;-70
2021/05/26 01:24:12;;;;;;;2.75;0.82;;;;;;;7.13;100.00;95931.41;1047629;28;20036;-70
2021/05/26 01:24:42;;;;;;;2.40;0.85;;;;;;;7.10;100.00;95930.06;1029142;28;20038;-70
2021/05/26 01:25:13;;;;;;;1.00;0.70;;;;;;;7.08;100.00;95927.69;1023369;29;20035;-70
2021/05/26 01:25:49;;;;;;;2.95;0.70;;;;;;;7.09;100.00;95926.66;1026045;28;20051;-69
2021/05/26 01:26:19;;;;;;;1.55;1.00;;;;;;;7.09;100.00;95924.06;1025481;28;20031;-70
2021/05/26 01:26:50;;;;;;;2.78;1.05;;;;;;;7.13;100.00;95929.59;1039473;28;20318;-70
2021/05/26 01:27:20;;;;;;;2.47;1.05;;;;;;;7.14;100.00;95930.38;1035586;28;20523;-70
2021/05/26 01:27:51;;;;;;;3.08;1.10;;;;;;;7.11;100.00;95933.44;1031451;28;20022;-71
2021/05/26 01:28:22;;;;;;;1.23;0.75;;;;;;;7.13;100.00;95932.19;1027367;28;20091;-70
2021/05/26 01:28:52;;;;;;;2.60;1.05;;;;;;;7.10;100.00;95930.06;1030366;28;20029;-70
2021/05/26 01:29:22;;;;;;;3.30;1.10;;;;;;;7.10;100.00;95930.06;1035633;28;20021;-70
2021/05/26 01:29:55;;;;;;;3.38;1.00;;;;;;;7.07;100.00;95926.09;1033986;28;20029;-70
2021/05/26 01:30:25;;;;;;;2.90;1.02;;;;;;;7.11;100.00;95929.06;1027335;28;20023;-70
2021/05/26 01:30:56;;;;;;;2.53;0.88;;;;;;;7.08;100.00;95922.47;1039556;28;20264;-70
2021/05/26 01:31:27;;;;;;;2.58;1.00;;;;;;;7.07;100.00;95925.31;1031202;28;20026;-70
2021/05/26 01:31:58;;;;;;;2.08;1.00;;;;;;;7.09;100.00;95925.88;1031461;28;20500;-70
2021/05/26 01:32:29;;;;;;;2.22;0.80;;;;;;;7.00;100.00;95919.44;1025887;28;20031;-70
2021/05/26 01:32:59;;;;;;;2.92;0.70;;;;;;;7.08;100.00;95929.50;1031223;28;20258;-70
2021/05/26 01:33:30;;;;;;;1.20;0.70;;;;;;;6.88;100.00;95890.03;1039519;28;20620;-70
2021/05/26 01:34:00;;;;;;;2.22;0.90;;;;;;;7.06;100.00;95929.72;1034284;28;20033;-71
2021/05/26 01:34:31;;;;;;;2.03;1.13;;;;;;;7.10;100.00;95927.44;1027356;28;20023;-70
2021/05/26 01:35:01;;;;;;;1.52;0.90;;;;;;;7.09;100.00;95920.66;1033811;28;20044;-70
2021/05/26 01:35:38;;;;;;;1.73;0.63;;;;;;;7.11;100.00;95926.44;1027728;28;20019;-70
2021/05/26 01:36:08;;;;;;;2.65;0.90;;;;;;;7.11;100.00;95923.00;1022786;29;20263;-69
2021/05/26 01:36:42;;;;;;;1.48;0.60;;;;;;;7.12;100.00;95922.78;1031284;28;20836;-70
2021/05/26 01:37:12;;;;;;;3.33;0.70;;;;;;;7.12;100.00;95922.78;1027254;28;20030;-71
2021/05/26 01:37:44;;;;;;;2.55;0.82;;;;;;;7.13;100.00;95923.59;1027160;28;20266;-71
2021/05/26 01:38:16;;;;;;;1.65;0.55;;;;;;;7.12;100.00;95925.41;1032748;28;20029;-70
2021/05/26 01:38:46;;;;;;;2.58;0.98;;;;;;;7.06;100.00;95918.50;1031083;28;20289;-71
2021/05/26 01:39:18;;;;;;;2.30;0.90;;;;;;;7.15;100.00;95927.53;1027216;28;20321;-71
2021/05/26 01:39:49;;;;;;;1.75;0.80;;;;;;;7.16;100.00;95923.91;1030899;28;20479;-69
2021/05/26 01:40:20;;;;;;;3.58;0.82;;;;;;;7.13;100.00;95919.16;1035651;28;20300;-70
2021/05/26 01:40:58;;;;;;;2.15;1.02;;;;;;;7.15;100.00;95921.53;1034527;28;20030;-70
2021/05/26 01:41:29;;;;;;;2.17;0.80;;;;;;;7.13;100.00;95924.38;1031010;28;20109;-69
2021/05/26 01:41:59;;;;;;;3.05;0.98;;;;;;;7.04;100.00;95912.72;1027335;28;20294;-70
2021/05/26 01:42:30;;;;;;;2.55;0.90;;;;;;;7.14;100.00;95925.16;1030205;28;20519;-69
2021/05/26 01:43:00;;;;;;;2.63;0.80;;;;;;;6.91;100.00;95884.31;1026705;28;20031;-68
2021/05/26 01:43:32;;;;;;;2.60;1.05;;;;;;;7.13;100.00;95924.38;1031995;28;20033;-69
2021/05/26 01:44:04;;;;;;;3.20;0.90;;;;;;;7.11;100.00;95920.41;1032822;28;20021;-70
2021/05/26 01:44:35;;;;;;;1.42;0.60;;;;;;;7.10;100.00;95919.63;1026027;28;20576;-70
2021/05/26 01:45:10;;;;;;;4.28;0.70;;;;;;;7.03;100.00;95913.75;1026151;28;20290;-70
2021/05/26 01:45:41;;;;;;;3.78;1.02;;;;;;;7.14;100.00;95915.50;1026991;28;20262;-70
2021/05/26 01:46:11;;;;;;;0.80;0.70;;;;;;;7.13;100.00;95923.59;1025740;28;20266;-69
2021/05/26 01:46:42;;;;;;;6.30;1.05;;;;;;;7.18;100.00;95921.84;1026936;28;20645;-70
2021/05/26 01:47:12;;;;;;;2.80;0.90;;;;;;;7.16;100.00;95912.69;1027140;28;20639;-70
2021/05/26 01:47:44;;;;;;;1.23;0.82;;;;;;;7.23;100.00;95919.31;1029333;28;20031;-69
2021/05/26 01:48:15;;;;;;;2.95;1.00;;;;;;;7.17;100.00;95902.00;1031377;28;20041;-70
2021/05/26 01:48:46;;;;;;;2.17;1.00;;;;;;;7.21;100.00;95905.72;1034966;28;20284;-70
2021/05/26 01:49:16;;;;;;;2.60;0.70;;;;;;;7.18;100.00;95900.97;1031215;28;20033;-69
2021/05/26 01:49:50;;;;;;;2.05;0.98;;;;;;;7.27;100.00;95915.19;1031082;28;20790;-70
2021/05/26 01:50:23;;;;;;;3.17;0.98;;;;;;;7.29;100.00;95907.94;1031481;28;20121;-71
2021/05/26 01:50:54;;;;;;;2.20;1.10;;;;;;;7.36;100.00;95912.22;1031843;28;20261;-70
2021/05/26 01:51:24;;;;;;;2.58;0.82;;;;;;;7.36;100.00;95907.00;1036280;28;20269;-70
2021/05/26 01:51:55;;;;;;;1.92;0.70;;;;;;;7.36;100.00;95907.00;1031230;28;20033;-70
2021/05/26 01:52:25;;;;;;;2.80;1.00;;;;;;;7.35;100.00;95902.81;1027054;28;20030;-71
2021/05/26 01:53:04;;;;;;;4.22;1.35;;;;;;;7.39;100.00;95904.69;1026950;28;20504;-70
2021/05/26 01:53:35;;;;;;;3.22;0.88;;;;;;;7.39;100.00;95906.53;1036300;28;20034;-71
2021/05/26 01:54:05;;;;;;;1.23;0.55;;;;;;;7.40;100.00;95897.66;1039114;28;20773;-69
2021/05/26 01:54:36;;;;;;;2.85;0.95;;;;;;;7.39;100.00;95907.31;1040651;28;20226;-70
2021/05/26 01:55:07;;;;;;;1.42;0.88;;;;;;;7.32;100.00;95896.22;1043124;28;20041;-70
2021/05/26 01:55:38;;;;;;;2.88;0.80;;;;;;;7.39;100.00;95906.53;1031111;28;20030;-69
2021/05/26 01:56:16;;;;;;;2.35;0.63;;;;;;;7.29;100.00;95889.66;1025439;28;20134;-69
2021/05/26 01:56:46;;;;;;;2.83;0.80;;;;;;;7.38;100.00;95900.50;1027050;28;20284;-70
2021/05/26 01:57:17;;;;;;;2.63;0.98;;;;;;;7.29;100.00;95897.50;1031388;28;20464;-70
2021/05/26 01:57:47;;;;;;;3.22;0.82;;;;;;;7.37;100.00;95904.13;1035759;28;20098;-69
2021/05/26 01:58:17;;;;;;;1.50;0.75;;;;;;;7.32;100.00;95896.22;1035066;28;20045;-70
2021/05/26 01:58:49;;;;;;;1.92;0.73;;;;;;;7.37;100.00;95906.75;1031144;28;20061;-70
2021/05/26 01:59:20;;;;;;;1.70;0.70;;;;;;;7.38;100.00;95907.53;1026959;28;20526;-70
2021/05/26 01:59:53;;;;;;;3.25;1.00;;;;;;;7.38;100.00;95904.91;1031154;28;20376;-70
2021/05/26 02:00:24;;;;;;;2.90;1.00;;;;;;;7.29;100.00;95897.50;1031176;28;20320;-69
2021/05/26 02:00:54;;;;;;;0.60;0.60;;;;;;;7.27;100.00;95893.53;1031246;28;20026;-70
2021/05/26 02:01:25;;;;;;;2.40;0.90;;;;;;;7.36;100.00;95905.16;1026297;28;20055;-71
2021/05/26 02:01:55;;;;;;;3.08;0.95;;;;;;;7.35;100.00;95906.22;1023238;29;20055;-71
2021/05/26 02:02:26;;;;;;;1.20;0.90;;;;;;;7.35;100.00;95910.63;1022992;29;20386;-71
2021/05/26 02:02:56;;;;;;;3.95;0.82;;;;;;;7.32;100.00;95906.69;1023497;28;20035;-70
2021/05/26 02:03:27;;;;;;;1.90;0.98;;;;;;;7.30;100.00;95904.28;1027021;28;20035;-70
2021/05/26 02:03:57;;;;;;;1.23;0.77;;;;;;;7.29;100.00;95899.31;1031601;28;20053;-70
2021/05/26 02:04:28;;;;;;;1.17;0.75;;;;;;;7.32;100.00;95902.25;1031721;28;20038;-70
2021/05/26 02:04:58;;;;;;;2.50;1.40;;;;;;;7.25;100.00;95891.19;1038506;28;20029;-69
2021/05/26 02:05:29;;;;;;;3.72;1.00;;;;;;;7.28;100.00;95901.13;1031419;28;20045;-70
2021/05/26 02:05:59;;;;;;;2.33;0.80;;;;;;;7.24;100.00;95897.44;1030526;28;20101;-70
2021/05/26 02:06:31;;;;;;;2.50;0.93;;;;;;;7.27;100.00;95906.59;1027007;28;20420;-70
2021/05/26 02:07:07;;;;;;;1.60;0.73;;;;;;;7.24;100.00;95902.66;1031322;28;20109;-72
2021/05/26 02:07:38;;;;;;;1.58;0.80;;;;;;;7.22;100.00;95902.09;1035209;28;20307;-72
2021/05/26 02:08:08;;;;;;;0.75;0.65;;;;;;;7.21;100.00;95897.91;1030039;28;20744;-70
2021/05/26 02:08:41;;;;;;;4.35;1.10;;;;;;;7.19;100.00;95902.56;1032840;28;20404;-70
2021/05/26 02:09:11;;;;;;;1.60;0.70;;;;;;;7.19;100.00;95892.13;1040293;28;20112;-70
2021/05/26 02:09:43;;;;;;;1.80;0.60;;;;;;;7.18;100.00;95894.97;1043201;28;20621;-70
2021/05/26 02:10:15;;;;;;;4.18;0.90;;;;;;;7.16;100.00;95892.59;1038872;28;20455;-70
2021/05/26 02:12:24;;;;;;;2.40;0.93;;;;;;;7.13;100.00;95894.88;1047374;28;20380;-70
2021/05/26 02:12:55;;;;;;;1.58;0.93;;;;;;;7.10;100.00;95883.09;1043340;28;20602;-69
2021/05/26 02:13:25;;;;;;;5.40;1.10;;;;;;;7.03;100.00;95875.41;1044032;28;20774;-70
2021/05/26 02:13:59;;;;;;;1.90;0.70;;;;;;;7.05;100.00;95885.63;1043534;28;20560;-71
2021/05/26 02:14:30;;;;;;;1.33;0.80;;;;;;;7.10;100.00;95883.09;1034336;28;20034;-71
2021/05/26 02:15:01;;;;;;;3.15;0.80;;;;;;;7.09;100.00;95884.13;1028896;28;20258;-70
2021/05/26 02:15:34;;;;;;;2.83;1.02;;;;;;;7.04;100.00;95882.25;1030849;28;20026;-70
2021/05/26 02:16:05;;;;;;;1.58;0.70;;;;;;;7.08;100.00;95890.38;1029755;28;20922;-70
2021/05/26 02:16:36;;;;;;;1.83;0.93;;;;;;;7.09;100.00;95884.13;1034762;28;20319;-69
2021/05/26 02:17:06;;;;;;;3.50;1.05;;;;;;;7.09;100.00;95890.13;1034838;28;20113;-70
2021/05/26 02:17:37;;;;;;;3.90;1.00;;;;;;;7.05;100.00;95881.19;1022942;28;20582;-69
2021/05/26 02:18:07;;;;;;;1.92;0.90;;;;;;;7.08;100.00;95885.16;1030922;28;20033;-70
2021/05/26 02:18:38;;;;;;;3.35;0.93;;;;;;;7.07;100.00;95888.78;1036806;28;20032;-71
2021/05/26 02:19:08;;;;;;;2.42;0.80;;;;;;;7.06;100.00;95888.00;1039119;28;20048;-70
2021/05/26 02:19:39;;;;;;;2.90;1.00;;;;;;;7.09;100.00;95886.75;1039069;28;20115;-71
2021/05/26 02:20:12;;;;;;;2.35;1.00;;;;;;;7.09;100.00;95881.50;1034920;28;20060;-72
2021/05/26 02:20:43;;;;;;;3.30;0.95;;;;;;;7.08;100.00;95885.16;1035155;28;20268;-70
2021/05/26 02:21:13;;;;;;;3.25;0.88;;;;;;;7.07;100.00;95883.56;1034843;28;20104;-71
2021/05/26 02:21:44;;;;;;;1.65;0.73;;;;;;;7.09;100.00;95884.13;1031845;28;20026;-70
2021/05/26 02:22:14;;;;;;;2.78;1.05;;;;;;;7.10;100.00;95885.69;1034769;28;20049;-70
2021/05/26 02:22:45;;;;;;;2.00;0.70;;;;;;;7.07;100.00;95875.72;1038944;28;20026;-69
2021/05/26 02:23:15;;;;;;;3.95;0.90;;;;;;;7.05;100.00;95875.19;1043610;28;20021;-70
2021/05/26 02:23:46;;;;;;;0.80;0.70;;;;;;;7.07;100.00;95888.78;1034778;28;20030;-69
2021/05/26 02:24:16;;;;;;;3.22;0.80;;;;;;;7.07;100.00;95873.13;1035200;28;20025;-69
2021/05/26 02:24:47;;;;;;;1.23;0.50;;;;;;;7.08;100.00;95879.94;1037228;28;20037;-70
2021/05/26 02:25:17;;;;;;;1.83;0.93;;;;;;;7.07;100.00;95875.72;1026912;28;20496;-71
2021/05/26 02:25:48;;;;;;;0.90;0.70;;;;;;;7.06;100.00;95874.16;1034441;28;20026;-70
2021/05/26 02:26:18;;;;;;;2.55;1.08;;;;;;;7.03;100.00;95872.03;1034781;28;20030;-70
2021/05/26 02:26:49;;;;;;;2.70;0.65;;;;;;;7.07;100.00;95875.72;1030510;28;20297;-70
2021/05/26 02:27:19;;;;;;;3.22;0.80;;;;;;;7.03;100.00;95866.81;1026781;28;20428;-70
2021/05/26 02:27:50;;;;;;;2.22;0.50;;;;;;;7.03;100.00;95864.19;1026765;28;20086;-69
2021/05/26 02:28:20;;;;;;;1.92;1.02;;;;;;;7.11;100.00;95878.66;1033148;28;20117;-71
2021/05/26 02:28:51;;;;;;;1.02;0.60;;;;;;;7.08;100.00;95869.50;1034317;28;20029;-70